Time;durP1;ratioP1;P1;durP2;ratioP2;P2;SDS_P1;SDS_P2;PMS_P1;PMS_P2;Temp;Humidity;BMP_temperature;BMP_pressure;BME280_temperature;BME280_humidity;BME280_pressure;Samples;Min_cycle;Max_cycle;Signal;HPM_P1;HPM_P2
2022/11/14 00:01:07;;;;;;;;;;;;;;;7.62;65.96;96327.81;5056122;28;1467;-59
2022/11/14 00:03:33;;;;;;;;;;;;;;;7.41;66.50;96328.44;5056175;28;1014;-59
2022/11/14 00:06:03;;;;;;;;;;;;;;;7.47;66.71;96326.28;5056253;28;1070;-59
2022/11/14 00:08:29;;;;;;;;;;;;;;;7.38;66.98;96326.03;5056592;28;979;-59
2022/11/14 00:10:55;;;;;;;;;;;;;;;7.36;66.50;96324.41;5056064;28;1987;-59
2022/11/14 00:13:21;;;;;;;;;;;;;;;7.33;66.44;96327.31;5056003;28;1129;-59
2022/11/14 00:15:49;;;;;;;;;;;;;;;7.27;66.43;96325.13;5038694;28;978;-59
2022/11/14 00:18:16;;;;;;;;;;;;;;;7.27;66.75;96323.31;5055946;28;1129;-59
2022/11/14 00:20:42;;;;;;;;;;;;;;;7.20;66.91;96322.88;5038034;28;1213;-58
2022/11/14 00:23:08;;;;;;;;;;;;;;;7.16;66.89;96324.06;5055070;28;1093;-59
2022/11/14 00:25:34;;;;;;;;;;;;;;;7.21;66.89;96321.09;5055218;28;1058;-59
2022/11/14 00:28:00;;;;;;;;;;;;;;;7.26;66.83;96315.44;5056075;28;1042;-59
2022/11/14 00:30:26;;;;;;;;;;;;;;;7.16;66.82;96323.22;5055720;28;1988;-58
2022/11/14 00:32:52;;;;;;;;;;;;;;;7.15;66.50;96321.50;5055819;28;955;-59
2022/11/14 00:35:18;;;;;;;;;;;;;;;7.17;66.51;96319.59;5055608;28;1066;-58
2022/11/14 00:37:44;;;;;;;;;;;;;;;7.03;66.70;96324.09;5055785;28;1450;-58
2022/11/14 00:40:11;;;;;;;;;;;;;;;7.02;66.66;96317.09;5055337;28;1153;-59
2022/11/14 00:42:37;;;;;;;;;;;;;;;7.02;66.37;96314.44;5055440;28;1032;-59
2022/11/14 00:45:03;;;;;;;;;;;;;;;6.91;66.67;96316.19;5055718;28;1037;-58
2022/11/14 00:47:29;;;;;;;;;;;;;;;6.82;66.78;96312.34;5055541;28;1017;-58
2022/11/14 00:49:55;;;;;;;;;;;;;;;6.72;66.85;96321.97;5055020;28;1983;-59
2022/11/14 00:52:21;;;;;;;;;;;;;;;6.70;66.59;96313.25;5055123;28;1241;-59
2022/11/14 00:54:47;;;;;;;;;;;;;;;6.83;67.35;96311.41;5055586;28;1626;-59
2022/11/14 00:57:13;;;;;;;;;;;;;;;6.96;67.52;96308.69;5055547;28;1065;-58
2022/11/14 00:59:39;;;;;;;;;;;;;;;6.96;66.93;96306.91;5055073;28;1094;-59
2022/11/14 01:02:05;;;;;;;;;;;;;;;7.00;66.81;96305.72;5055499;28;969;-58
2022/11/14 01:04:31;;;;;;;;;;;;;;;7.00;66.85;96313.72;5055364;28;961;-59
2022/11/14 01:06:57;;;;;;;;;;;;;;;7.04;66.73;96311.69;5055340;28;1049;-59
2022/11/14 01:09:23;;;;;;;;;;;;;;;6.99;66.70;96313.81;5054962;28;1914;-59
2022/11/14 01:11:50;;;;;;;;;;;;;;;7.01;66.45;96306.56;5055315;28;1472;-59
2022/11/14 01:14:16;;;;;;;;;;;;;;;7.03;66.05;96307.31;5055074;28;970;-59
2022/11/14 01:16:42;;;;;;;;;;;;;;;6.95;66.32;96304.34;5054938;28;1094;-59
2022/11/14 01:19:08;;;;;;;;;;;;;;;6.88;66.47;96301.28;5054623;28;1395;-58
2022/11/14 01:21:34;;;;;;;;;;;;;;;6.82;66.73;96310.53;5054727;28;1105;-58
2022/11/14 01:24:00;;;;;;;;;;;;;;;6.69;66.83;96303.56;5055043;28;990;-58
2022/11/14 01:26:26;;;;;;;;;;;;;;;6.62;67.16;96301.34;5054661;28;1054;-59
2022/11/14 01:28:52;;;;;;;;;;;;;;;6.61;67.74;96304.09;5054685;28;1042;-58
2022/11/14 01:31:20;;;;;;;;;;;;;;;6.71;67.16;96309.63;5053535;28;1914;-58
2022/11/14 01:33:49;;;;;;;;;;;;;;;6.65;65.88;96302.91;5054716;28;1103;-59
2022/11/14 01:36:15;;;;;;;;;;;;;;;6.62;67.78;96309.31;5054233;28;1080;-59
2022/11/14 01:38:41;;;;;;;;;;;;;;;6.68;67.41;96302.72;5042862;28;1507;-58
2022/11/14 01:41:08;;;;;;;;;;;;;;;6.69;67.26;96304.41;5034835;28;1053;-59
2022/11/14 01:43:36;;;;;;;;;;;;;;;6.70;66.30;96305.28;5052342;28;1034;-58
2022/11/14 01:46:02;;;;;;;;;;;;;;;6.70;66.56;96306.13;5054670;28;955;-59
2022/11/14 01:48:31;;;;;;;;;;;;;;;6.72;66.80;96303.34;5054202;28;1058;-58
2022/11/14 01:51:00;;;;;;;;;;;;;;;6.73;66.00;96300.56;5054447;28;2003;-59
2022/11/14 01:53:26;;;;;;;;;;;;;;;6.63;66.27;96299.53;5053712;28;1168;-57
2022/11/14 01:55:54;;;;;;;;;;;;;;;6.65;65.90;96302.91;5054036;28;1618;-59
2022/11/14 01:58:21;;;;;;;;;;;;;;;6.64;66.81;96299.44;5054015;28;1094;-58
2022/11/14 02:00:47;;;;;;;;;;;;;;;6.70;66.76;96300.81;5054093;28;927;-59
2022/11/14 02:03:14;;;;;;;;;;;;;;;6.83;66.71;96298.13;5053873;28;1058;-58
2022/11/14 02:05:41;;;;;;;;;;;;;;;6.83;66.81;96296.31;5036469;28;1163;-58
2022/11/14 02:08:11;;;;;;;;;;;;;;;6.76;67.02;96295.03;5053920;28;1089;-58
2022/11/14 02:10:37;;;;;;;;;;;;;;;6.74;67.11;96294.31;5053815;28;1882;-58
2022/11/14 02:13:03;;;;;;;;;;;;;;;6.77;66.72;96294.09;5053902;28;1051;-59
2022/11/14 02:15:29;;;;;;;;;;;;;;;6.72;66.02;96298.88;5053749;28;974;-59
2022/11/14 02:17:55;;;;;;;;;;;;;;;6.48;65.85;96296.13;5054076;28;1029;-59
2022/11/14 02:20:22;;;;;;;;;;;;;;;6.35;66.63;96290.84;5053581;28;1078;-59
2022/11/14 02:22:48;;;;;;;;;;;;;;;6.38;66.61;96295.09;5053744;28;1255;-58
2022/11/14 02:25:17;;;;;;;;;;;;;;;6.32;66.84;96299.03;5053647;28;1066;-59
2022/11/14 02:27:43;;;;;;;;;;;;;;;6.36;66.70;96289.03;5053639;28;1105;-59
2022/11/14 02:30:12;;;;;;;;;;;;;;;6.23;66.63;96281.06;5053504;28;1906;-58
2022/11/14 02:32:38;;;;;;;;;;;;;;;6.23;66.79;96281.91;5053124;28;1082;-59
2022/11/14 02:35:05;;;;;;;;;;;;;;;6.32;66.29;96284.88;5053824;28;1160;-59
2022/11/14 02:37:31;;;;;;;;;;;;;;;6.36;66.27;96273.09;5051428;28;1283;-58
2022/11/14 02:39:57;;;;;;;;;;;;;;;6.42;65.88;96286.78;5033661;28;1042;-58
2022/11/14 02:42:23;;;;;;;;;;;;;;;6.27;66.56;96279.91;5039656;28;1108;-59
2022/11/14 02:44:52;;;;;;;;;;;;;;;6.22;66.25;96279.38;5053325;28;1149;-58
2022/11/14 02:47:18;;;;;;;;;;;;;;;6.11;66.71;96282.78;5051148;28;1243;-59
2022/11/14 02:49:44;;;;;;;;;;;;;;;6.10;66.66;96272.25;5053494;28;1910;-59
2022/11/14 02:52:10;;;;;;;;;;;;;;;6.12;66.43;96273.00;5052731;28;1225;-59
2022/11/14 02:54:36;;;;;;;;;;;;;;;6.05;65.99;96262.81;5052575;28;1674;-58
2022/11/14 02:57:02;;;;;;;;;;;;;;;5.91;66.58;96265.53;5053193;28;919;-58
2022/11/14 02:59:28;;;;;;;;;;;;;;;5.95;66.92;96267.03;5053105;28;1093;-59
2022/11/14 03:01:54;;;;;;;;;;;;;;;6.16;66.86;96261.22;5053203;28;1090;-59
2022/11/14 03:04:20;;;;;;;;;;;;;;;6.13;66.20;96264.94;5053104;28;1072;-59
2022/11/14 03:06:46;;;;;;;;;;;;;;;6.07;66.28;96262.72;5053365;28;1032;-58
2022/11/14 03:09:12;;;;;;;;;;;;;;;6.02;66.12;96265.66;5053056;28;1909;-58
2022/11/14 03:11:38;;;;;;;;;;;;;;;5.88;66.44;96255.13;5035531;28;954;-58
2022/11/14 03:14:05;;;;;;;;;;;;;;;5.78;67.44;96254.88;5053111;28;1050;-59
2022/11/14 03:16:31;;;;;;;;;;;;;;;5.85;67.40;96261.50;5053006;28;1033;-59
2022/11/14 03:18:57;;;;;;;;;;;;;;;5.95;67.35;96255.53;5053302;28;1097;-58
2022/11/14 03:21:23;;;;;;;;;;;;;;;6.03;66.48;96256.75;5052888;28;1047;-59
2022/11/14 03:23:49;;;;;;;;;;;;;;;6.12;66.62;96255.25;5052976;28;1054;-59
2022/11/14 03:26:15;;;;;;;;;;;;;;;6.26;66.45;96249.00;5052886;28;971;-59
2022/11/14 03:28:42;;;;;;;;;;;;;;;6.12;66.11;96252.59;5052725;28;1106;-59
2022/11/14 03:31:09;;;;;;;;;;;;;;;5.98;65.63;96256.22;5052862;28;1910;-59
2022/11/14 03:33:35;;;;;;;;;;;;;;;5.87;66.20;96248.13;5053093;28;1038;-59
2022/11/14 03:36:01;;;;;;;;;;;;;;;5.86;66.17;96260.53;5053113;28;967;-59
2022/11/14 03:38:28;;;;;;;;;;;;;;;5.65;66.47;96259.34;5052710;28;1496;-59
2022/11/14 03:40:54;;;;;;;;;;;;;;;5.58;66.62;96242.16;5052973;28;1001;-59
2022/11/14 03:43:20;;;;;;;;;;;;;;;5.62;66.37;96252.44;5052820;28;985;-59
2022/11/14 03:45:47;;;;;;;;;;;;;;;5.70;66.94;96245.78;5052819;28;1057;-58
2022/11/14 03:48:13;;;;;;;;;;;;;;;5.69;66.59;96244.91;5053056;28;1342;-58
2022/11/14 03:50:39;;;;;;;;;;;;;;;5.54;66.48;96246.81;5052779;28;1913;-59
2022/11/14 03:53:05;;;;;;;;;;;;;;;5.44;67.55;96251.00;5052570;28;1231;-58
2022/11/14 03:55:32;;;;;;;;;;;;;;;5.54;67.56;96245.94;5052643;28;1677;-58
2022/11/14 03:57:58;;;;;;;;;;;;;;;5.66;67.38;96245.13;5053484;28;965;-59
2022/11/14 04:00:26;;;;;;;;;;;;;;;5.67;67.03;96238.84;5056278;28;1002;-58
2022/11/14 04:02:53;;;;;;;;;;;;;;;5.68;67.27;96240.56;5056297;28;1038;-58
2022/11/14 04:05:19;;;;;;;;;;;;;;;5.71;66.85;96243.03;5038770;28;1009;-58
2022/11/14 04:07:45;;;;;;;;;;;;;;;5.61;67.11;96234.81;5056403;28;1064;-58
2022/11/14 04:10:12;;;;;;;;;;;;;;;5.66;67.09;96232.69;5056168;28;1918;-58
2022/11/14 04:12:37;;;;;;;;;;;;;;;5.68;66.70;96236.09;5056210;28;1030;-58
2022/11/14 04:15:04;;;;;;;;;;;;;;;5.53;66.81;96233.66;5056183;28;1878;-59
2022/11/14 04:17:30;;;;;;;;;;;;;;;5.43;67.05;96228.13;5056043;28;1301;-60
2022/11/14 04:19:56;;;;;;;;;;;;;;;5.45;66.85;96227.03;5056182;28;1025;-61
2022/11/14 04:22:22;;;;;;;;;;;;;;;5.49;67.01;96230.34;5056109;28;1052;-61
2022/11/14 04:24:48;;;;;;;;;;;;;;;5.50;66.76;96224.06;5038483;28;1052;-61
2022/11/14 04:27:14;;;;;;;;;;;;;;;5.51;67.08;96224.94;5056013;28;1020;-61
2022/11/14 04:29:40;;;;;;;;;;;;;;;5.48;66.66;96233.94;5055777;28;1902;-61
2022/11/14 04:32:06;;;;;;;;;;;;;;;5.44;66.39;96235.97;5038143;28;1050;-61
2022/11/14 04:34:32;;;;;;;;;;;;;;;5.40;66.68;96229.16;5055674;28;1022;-60
2022/11/14 04:36:58;;;;;;;;;;;;;;;5.37;66.45;96234.69;5055886;28;1052;-61
2022/11/14 04:39:25;;;;;;;;;;;;;;;5.38;66.68;96236.38;5055661;28;1430;-60
2022/11/14 04:41:51;;;;;;;;;;;;;;;5.36;66.38;96237.44;5055744;28;1075;-60
2022/11/14 04:44:17;;;;;;;;;;;;;;;5.16;66.51;96242.25;5055406;28;1046;-61
2022/11/14 04:46:43;;;;;;;;;;;;;;;5.25;67.23;96243.44;5055746;28;1054;-60
2022/11/14 04:49:09;;;;;;;;;;;;;;;5.28;66.71;96228.19;5055349;28;1995;-60
2022/11/14 04:51:35;;;;;;;;;;;;;;;5.32;66.67;96230.63;5055537;28;1037;-60
2022/11/14 04:54:01;;;;;;;;;;;;;;;5.16;66.54;96230.78;5055208;28;1598;-61
2022/11/14 04:56:28;;;;;;;;;;;;;;;5.06;66.96;96230.53;5055218;28;1116;-61
2022/11/14 04:58:54;;;;;;;;;;;;;;;5.04;66.99;96230.63;5055318;28;1045;-60
2022/11/14 05:01:20;;;;;;;;;;;;;;;4.99;67.39;96238.06;5055195;28;1060;-60
2022/11/14 05:03:46;;;;;;;;;;;;;;;5.16;68.01;96231.66;5055414;28;963;-61
2022/11/14 05:06:12;;;;;;;;;;;;;;;5.25;67.98;96236.34;5037755;28;961;-60
2022/11/14 05:08:38;;;;;;;;;;;;;;;5.35;67.62;96235.72;5055190;28;1285;-60
2022/11/14 05:11:04;;;;;;;;;;;;;;;5.40;67.54;96228.31;5036703;28;1989;-60
2022/11/14 05:13:31;;;;;;;;;;;;;;;5.38;67.45;96236.38;5037241;28;1089;-60
2022/11/14 05:15:57;;;;;;;;;;;;;;;5.24;65.55;96233.78;5054981;28;1080;-60
2022/11/14 05:18:23;;;;;;;;;;;;;;;5.07;66.36;96240.22;5055063;28;1025;-59
2022/11/14 05:20:49;;;;;;;;;;;;;;;5.05;68.02;96228.88;5054851;28;1093;-60
2022/11/14 05:23:20;;;;;;;;;;;;;;;5.19;67.53;96230.59;5054977;28;978;-60
2022/11/14 05:25:47;;;;;;;;;;;;;;;5.16;67.35;96226.34;5054864;28;1105;-61
2022/11/14 05:28:13;;;;;;;;;;;;;;;5.11;66.98;96231.09;5054700;28;1129;-61
2022/11/14 05:30:39;;;;;;;;;;;;;;;5.11;67.09;96228.44;5054534;28;1918;-60
2022/11/14 05:33:05;;;;;;;;;;;;;;;5.15;66.68;96224.63;5054629;28;1038;-60
2022/11/14 05:35:31;;;;;;;;;;;;;;;5.12;66.19;96234.59;5054695;28;955;-59
2022/11/14 05:37:59;;;;;;;;;;;;;;;5.07;66.47;96233.09;5054549;28;1695;-60
2022/11/14 05:40:25;;;;;;;;;;;;;;;5.04;66.56;96238.59;5054552;28;1049;-61
2022/11/14 05:42:53;;;;;;;;;;;;;;;5.10;66.80;96250.59;5054536;28;1029;-66
2022/11/14 05:45:19;;;;;;;;;;;;;;;5.10;66.48;96242.66;5054567;28;1045;-60
2022/11/14 05:47:45;;;;;;;;;;;;;;;5.00;66.01;96242.41;5036990;28;975;-59
2022/11/14 05:50:11;;;;;;;;;;;;;;;5.03;66.39;96239.56;5054458;28;1993;-60
2022/11/14 05:52:37;;;;;;;;;;;;;;;5.02;66.66;96244.97;5054014;28;1246;-60
2022/11/14 05:55:03;;;;;;;;;;;;;;;4.97;66.62;96241.75;5054202;28;1610;-59
2022/11/14 05:57:29;;;;;;;;;;;;;;;5.01;66.94;96243.28;5054129;28;929;-59
2022/11/14 05:59:56;;;;;;;;;;;;;;;5.22;66.83;96248.97;5054194;28;1119;-60
2022/11/14 06:02:22;;;;;;;;;;;;;;;5.66;66.36;96245.97;5054271;28;978;-59
2022/11/14 06:04:48;;;;;;;;;;;;;;;6.21;65.06;96243.16;5054214;28;1218;-60
2022/11/14 06:07:14;;;;;;;;;;;;;;;6.86;63.37;96235.91;5054135;28;1032;-60
2022/11/14 06:09:40;;;;;;;;;;;;;;;7.52;60.76;96247.81;5054235;28;1902;-60
2022/11/14 06:12:07;;;;;;;;;;;;;;;8.34;58.53;96244.22;5053970;28;1074;-60
2022/11/14 06:14:33;;;;;;;;;;;;;;;8.87;57.42;96235.63;5054122;28;1009;-60
2022/11/14 06:16:59;;;;;;;;;;;;;;;9.45;56.00;96248.69;5054097;28;1036;-60
2022/11/14 06:19:25;;;;;;;;;;;;;;;10.01;53.14;96255.56;5053874;28;1041;-61
2022/11/14 06:21:51;;;;;;;;;;;;;;;10.56;51.76;96256.19;5053866;28;1053;-60
2022/11/14 06:24:17;;;;;;;;;;;;;;;10.50;51.33;96254.06;5053779;28;1061;-60
2022/11/14 06:26:43;;;;;;;;;;;;;;;9.81;53.44;96247.44;5053767;28;974;-59
2022/11/14 06:29:09;;;;;;;;;;;;;;;9.19;55.46;96239.16;5036020;28;1985;-59
2022/11/14 06:31:35;;;;;;;;;;;;;;;8.76;57.01;96240.00;5053739;28;1021;-59
2022/11/14 06:34:03;;;;;;;;;;;;;;;8.77;57.62;96236.38;5053804;28;977;-60
2022/11/14 06:36:29;;;;;;;;;;;;;;;8.73;57.87;96242.91;5053606;28;1006;-60
2022/11/14 06:38:55;;;;;;;;;;;;;;;9.31;57.24;96236.47;5053489;28;1445;-60
2022/11/14 06:41:22;;;;;;;;;;;;;;;10.59;54.14;96250.56;5053410;28;1025;-60
2022/11/14 06:43:48;;;;;;;;;;;;;;;10.94;52.27;96241.25;5033046;28;1425;-60
2022/11/14 06:46:17;;;;;;;;;;;;;;;11.02;52.30;96249.47;5053134;28;2508;-60
2022/11/14 06:48:43;;;;;;;;;;;;;;;11.28;51.85;96240.91;5053495;28;1072;-59
2022/11/14 06:51:10;;;;;;;;;;;;;;;11.56;51.04;96246.44;5053176;28;1906;-59
2022/11/14 06:53:37;;;;;;;;;;;;;;;12.34;49.08;96246.38;5053233;28;1086;-59
2022/11/14 06:56:07;;;;;;;;;;;;;;;13.13;48.08;96251.28;5035194;28;1803;-60
2022/11/14 06:58:34;;;;;;;;;;;;;;;12.96;48.67;96244.88;5053244;28;1030;-60
2022/11/14 07:01:04;;;;;;;;;;;;;;;13.54;47.38;96249.06;5052635;28;994;-60
2022/11/14 07:03:31;;;;;;;;;;;;;;;14.34;45.71;96253.59;5052114;28;1204;-66
2022/11/14 07:05:57;;;;;;;;;;;;;;;15.13;43.76;96247.16;5034810;28;1027;-59
2022/11/14 07:08:23;;;;;;;;;;;;;;;15.38;43.43;96256.16;5052560;28;986;-60
2022/11/14 07:10:49;;;;;;;;;;;;;;;14.65;44.92;96256.69;5051993;28;1989;-60
2022/11/14 07:13:16;;;;;;;;;;;;;;;14.14;46.26;96248.41;5053080;28;1027;-60
2022/11/14 07:15:48;;;;;;;;;;;;;;;13.93;46.76;96240.69;5035397;28;1128;-60
2022/11/14 07:18:14;;;;;;;;;;;;;;;14.15;46.37;96247.44;5053151;28;978;-59
2022/11/14 07:20:41;;;;;;;;;;;;;;;13.87;47.06;96238.63;5053065;28;947;-59
2022/11/14 07:23:07;;;;;;;;;;;;;;;13.19;48.45;96239.09;5053099;28;1061;-59
2022/11/14 07:25:33;;;;;;;;;;;;;;;12.56;49.78;96229.94;5052904;28;978;-59
2022/11/14 07:27:59;;;;;;;;;;;;;;;12.27;50.93;96222.84;5053213;28;985;-59
2022/11/14 07:30:25;;;;;;;;;;;;;;;12.22;51.54;96225.09;5052973;28;1910;-59
2022/11/14 07:32:54;;;;;;;;;;;;;;;12.36;51.71;96226.47;5053661;28;1049;-60
2022/11/14 07:35:21;;;;;;;;;;;;;;;12.54;51.04;96223.88;5056927;28;1041;-59
2022/11/14 07:37:47;;;;;;;;;;;;;;;12.74;50.60;96224.63;5052732;28;1513;-59
2022/11/14 07:40:13;;;;;;;;;;;;;;;13.96;48.12;96235.00;5036854;28;1018;-59
2022/11/14 07:42:39;;;;;;;;;;;;;;;14.88;46.22;96227.38;5036998;28;1001;-60
2022/11/14 07:45:05;;;;;;;;;;;;;;;14.80;45.84;96233.56;5036862;28;1098;-59
2022/11/14 07:47:31;;;;;;;;;;;;;;;14.09;47.36;96225.69;5036816;28;1062;-60
2022/11/14 07:49:57;;;;;;;;;;;;;;;13.19;49.77;96225.66;5036544;28;1905;-59
2022/11/14 07:52:24;;;;;;;;;;;;;;;12.40;52.20;96213.59;5018830;28;1359;-59
2022/11/14 07:54:50;;;;;;;;;;;;;;;11.73;54.22;96209.06;5045677;28;1723;-60
2022/11/14 07:57:16;;;;;;;;;;;;;;;11.24;55.78;96207.38;5056622;28;1062;-59
2022/11/14 07:59:42;;;;;;;;;;;;;;;10.88;57.43;96207.88;5056637;28;1006;-59
2022/11/14 08:02:13;;;;;;;;;;;;;;;10.61;58.29;96210.34;5056593;28;1220;-59
2022/11/14 08:04:40;;;;;;;;;;;;;;;10.38;58.99;96210.53;5056431;28;967;-59
2022/11/14 08:07:06;;;;;;;;;;;;;;;10.35;59.57;96216.97;5056349;28;954;-59
2022/11/14 08:09:32;;;;;;;;;;;;;;;10.35;59.62;96205.44;5038528;28;1995;-59
2022/11/14 08:11:58;;;;;;;;;;;;;;;10.35;60.30;96203.59;5038578;28;1892;-59
2022/11/14 08:14:24;;;;;;;;;;;;;;;10.49;60.49;96212.22;5056334;28;1013;-59
2022/11/14 08:16:50;;;;;;;;;;;;;;;10.59;59.90;96202.44;5056295;28;1063;-58
2022/11/14 08:19:17;;;;;;;;;;;;;;;10.65;60.32;96203.72;5056008;28;1077;-59
2022/11/14 08:21:43;;;;;;;;;;;;;;;10.79;60.23;96205.16;5056015;28;997;-59
2022/11/14 08:24:09;;;;;;;;;;;;;;;11.05;59.31;96202.84;5056251;28;1042;-58
2022/11/14 08:26:35;;;;;;;;;;;;;;;11.45;58.06;96204.56;5056073;28;1065;-58
2022/11/14 08:29:01;;;;;;;;;;;;;;;11.77;57.76;96208.78;5055949;28;1046;-58
2022/11/14 08:31:27;;;;;;;;;;;;;;;12.02;56.55;96213.56;5055890;28;1997;-58
2022/11/14 08:33:53;;;;;;;;;;;;;;;12.40;56.19;96200.19;5055915;28;1040;-59
2022/11/14 08:36:20;;;;;;;;;;;;;;;13.18;54.43;96202.47;5055688;28;1057;-59
2022/11/14 08:38:46;;;;;;;;;;;;;;;14.31;52.12;96200.13;5055712;28;1718;-59
2022/11/14 08:41:12;;;;;;;;;;;;;;;15.15;50.41;96199.34;5055889;28;1063;-59
2022/11/14 08:43:38;;;;;;;;;;;;;;;15.71;48.72;96191.53;5055502;28;1054;-59
2022/11/14 08:46:04;;;;;;;;;;;;;;;16.31;47.40;96195.72;5054418;28;1101;-59
2022/11/14 08:48:30;;;;;;;;;;;;;;;17.11;45.72;96194.00;5055528;28;1050;-59
2022/11/14 08:50:57;;;;;;;;;;;;;;;17.80;44.27;96198.66;5055491;28;1909;-58
2022/11/14 08:53:23;;;;;;;;;;;;;;;18.30;43.32;96197.22;5055298;28;2002;-60
2022/11/14 08:55:49;;;;;;;;;;;;;;;18.51;42.28;96194.63;5055516;28;1634;-59
2022/11/14 08:58:15;;;;;;;;;;;;;;;18.62;42.78;96190.63;5055281;28;1049;-59
2022/11/14 09:00:41;;;;;;;;;;;;;;;18.58;42.92;96180.38;5055316;28;1247;-59
2022/11/14 09:03:08;;;;;;;;;;;;;;;18.18;42.68;96163.53;5055380;28;958;-59
2022/11/14 09:05:35;;;;;;;;;;;;;;;18.41;42.81;96172.41;5055283;28;967;-60
2022/11/14 09:08:01;;;;;;;;;;;;;;;18.59;42.11;96165.78;5055153;28;1018;-59
2022/11/14 09:10:27;;;;;;;;;;;;;;;18.32;43.64;96160.00;5055221;28;1906;-59
2022/11/14 09:12:54;;;;;;;;;;;;;;;18.05;44.08;96148.75;5055334;28;983;-59
2022/11/14 09:15:21;;;;;;;;;;;;;;;18.26;43.74;96152.59;5037433;28;1002;-59
2022/11/14 09:17:47;;;;;;;;;;;;;;;18.85;42.26;96144.50;5055004;28;998;-59
2022/11/14 09:20:13;;;;;;;;;;;;;;;18.98;41.56;96140.31;5054985;28;962;-59
2022/11/14 09:22:39;;;;;;;;;;;;;;;18.97;41.89;96136.75;5054869;28;989;-59
2022/11/14 09:25:06;;;;;;;;;;;;;;;19.20;41.47;96130.34;5054844;28;1049;-59
2022/11/14 09:27:32;;;;;;;;;;;;;;;19.54;41.05;96121.53;5054907;28;1022;-59
2022/11/14 09:29:58;;;;;;;;;;;;;;;19.45;40.69;96128.97;5054836;28;1914;-59
2022/11/14 09:32:24;;;;;;;;;;;;;;;18.68;42.31;96121.34;5054771;28;1041;-59
2022/11/14 09:34:50;;;;;;;;;;;;;;;18.05;43.72;96113.56;5054735;28;1139;-59
2022/11/14 09:37:16;;;;;;;;;;;;;;;17.49;45.23;96113.00;5054502;28;1034;-59
2022/11/14 09:39:42;;;;;;;;;;;;;;;17.59;44.90;96104.66;5054489;28;1446;-59
2022/11/14 09:42:18;;;;;;;;;;;;;;;17.95;44.90;96094.06;5054725;28;1066;-59
2022/11/14 09:44:58;;;;;;;;;;;;;;;18.32;43.89;96093.13;5036955;28;1041;-59
2022/11/14 09:47:29;;;;;;;;;;;;;;;18.83;42.77;96091.56;5054345;28;1017;-59
2022/11/14 09:50:01;;;;;;;;;;;;;;;19.42;42.21;96085.09;5054519;28;1914;-59
2022/11/14 09:52:38;;;;;;;;;;;;;;;20.10;40.70;96096.38;5054108;28;1129;-60
2022/11/14 09:55:10;;;;;;;;;;;;;;;20.71;39.83;96084.84;5054420;28;1625;-59
2022/11/14 09:57:36;;;;;;;;;;;;;;;20.90;38.97;96085.97;5053847;28;2008;-59
2022/11/14 10:00:11;;;;;;;;;;;;;;;21.02;38.90;96083.53;5054240;28;974;-59
2022/11/14 10:02:43;;;;;;;;;;;;;;;20.94;39.26;96073.66;5054288;28;1022;-59
2022/11/14 10:05:09;;;;;;;;;;;;;;;20.93;39.46;96071.16;5054180;28;1050;-59
2022/11/14 10:07:38;;;;;;;;;;;;;;;20.81;39.76;96063.59;5053975;28;1113;-59
2022/11/14 10:10:04;;;;;;;;;;;;;;;21.04;39.55;96063.25;5053950;28;1905;-59
2022/11/14 10:12:40;;;;;;;;;;;;;;;21.05;38.99;96059.47;5053850;28;1049;-59
2022/11/14 10:15:12;;;;;;;;;;;;;;;20.77;40.14;96056.03;5053892;28;1129;-59
2022/11/14 10:17:57;;;;;;;;;;;;;;;20.51;40.02;96046.69;5054001;28;1037;-59
2022/11/14 10:20:38;;;;;;;;;;;;;;;20.20;40.29;96033.56;5053795;28;1045;-59
2022/11/14 10:23:12;;;;;;;;;;;;;;;19.84;41.55;96035.44;5053832;28;965;-59
2022/11/14 10:25:52;;;;;;;;;;;;;;;19.34;42.22;96031.84;5053992;28;1021;-59
2022/11/14 10:28:24;;;;;;;;;;;;;;;18.76;43.11;96023.69;5036141;28;983;-58
2022/11/14 10:30:59;;;;;;;;;;;;;;;18.24;44.57;96013.91;5053700;28;1906;-59
2022/11/14 10:33:35;;;;;;;;;;;;;;;17.92;45.86;96000.56;5035829;28;1102;-59
2022/11/14 10:36:04;;;;;;;;;;;;;;;17.85;45.40;95999.66;5053758;28;978;-59
2022/11/14 10:38:48;;;;;;;;;;;;;;;18.10;44.78;95999.38;5053611;28;1434;-58
2022/11/14 10:41:14;;;;;;;;;;;;;;;18.42;44.88;95994.53;5053534;28;1058;-59
2022/11/14 10:43:43;;;;;;;;;;;;;;;18.65;43.98;95997.13;5053505;28;974;-59
2022/11/14 10:46:19;;;;;;;;;;;;;;;18.70;44.31;95994.66;5053347;28;1121;-58
2022/11/14 10:48:46;;;;;;;;;;;;;;;18.60;45.02;95983.31;5035759;28;1069;-59
2022/11/14 10:51:42;;;;;;;;;;;;;;;18.45;44.98;95981.47;5053297;28;1905;-59
2022/11/14 10:54:37;;;;;;;;;;;;;;;18.19;45.22;95983.84;5040228;28;1688;-59
2022/11/14 10:57:12;;;;;;;;;;;;;;;17.86;46.31;95970.72;4999400;28;1124;-59
2022/11/14 10:59:38;;;;;;;;;;;;;;;17.51;47.49;95968.53;5035701;28;1517;-59
2022/11/14 11:02:04;;;;;;;;;;;;;;;17.40;47.49;95968.13;5035713;28;1090;-59
2022/11/14 11:04:31;;;;;;;;;;;;;;;17.26;47.76;95959.78;5053180;28;1070;-59
2022/11/14 11:12:47;;;;;;;;;;;;;;;16.89;48.80;95947.13;5053174;28;1061;-59
2022/11/14 11:15:13;;;;;;;;;;;;;;;16.82;49.47;95941.59;5053128;28;1022;-59
2022/11/14 11:17:52;;;;;;;;;;;;;;;16.81;49.45;95948.00;5052993;28;1635;-59
2022/11/14 11:20:30;;;;;;;;;;;;;;;16.75;49.45;95948.69;5053235;28;966;-59
2022/11/14 11:23:15;;;;;;;;;;;;;;;16.66;50.14;95950.63;5035390;28;1050;-59
2022/11/14 11:25:41;;;;;;;;;;;;;;;16.65;49.52;95946.22;5053102;28;1129;-58
2022/11/14 11:28:13;;;;;;;;;;;;;;;16.61;49.78;95938.69;5052962;28;1065;-58
2022/11/14 11:30:52;;;;;;;;;;;;;;;16.58;49.75;95934.50;5053048;28;1991;-59
2022/11/14 11:33:18;;;;;;;;;;;;;;;16.51;50.37;95928.97;5052986;28;1016;-59
2022/11/14 11:35:46;;;;;;;;;;;;;;;16.49;49.79;95922.91;5052897;28;1108;-58
2022/11/14 11:38:13;;;;;;;;;;;;;;;16.49;50.02;95922.91;5052765;28;1433;-59
2022/11/14 11:40:42;;;;;;;;;;;;;;;16.51;50.40;95918.16;5052792;28;1308;-59
2022/11/14 11:43:15;;;;;;;;;;;;;;;16.50;50.31;95910.25;5035196;28;1042;-59
2022/11/14 11:45:46;;;;;;;;;;;;;;;16.51;50.21;95909.22;5052998;28;1041;-59
2022/11/14 11:48:15;;;;;;;;;;;;;;;16.47;49.74;95906.06;5035323;28;1253;-59
2022/11/14 11:50:42;;;;;;;;;;;;;;;16.43;50.46;95910.13;5052819;28;1989;-59
2022/11/14 11:53:17;;;;;;;;;;;;;;;16.44;50.67;95903.69;5052548;28;1113;-59
2022/11/14 11:55:45;;;;;;;;;;;;;;;16.45;50.51;95891.91;5035305;28;1614;-59
2022/11/14 11:58:17;;;;;;;;;;;;;;;16.48;50.50;95896.91;5052675;28;1121;-59
2022/11/14 12:00:43;;;;;;;;;;;;;;;16.45;50.49;95891.91;5052842;28;1029;-59
2022/11/14 12:03:11;;;;;;;;;;;;;;;16.40;50.66;95883.50;5052770;28;1030;-59
2022/11/14 12:05:56;;;;;;;;;;;;;;;16.35;51.20;95881.34;5052546;28;1050;-59
2022/11/14 12:08:32;;;;;;;;;;;;;;;16.34;50.64;95874.25;5052538;28;1034;-59
2022/11/14 12:11:00;;;;;;;;;;;;;;;16.33;51.38;95872.59;5035070;28;1965;-59
2022/11/14 12:13:28;;;;;;;;;;;;;;;16.33;51.02;95871.72;5052474;28;1030;-59
2022/11/14 12:16:13;;;;;;;;;;;;;;;16.31;50.22;95871.91;5034865;28;1070;-59
2022/11/14 12:18:39;;;;;;;;;;;;;;;16.29;51.59;95868.53;5052876;28;1275;-58
2022/11/14 12:21:11;;;;;;;;;;;;;;;16.26;51.50;95873.44;5056076;28;1046;-59
2022/11/14 12:23:43;;;;;;;;;;;;;;;16.25;50.68;95867.22;5056103;28;954;-58
2022/11/14 12:26:20;;;;;;;;;;;;;;;16.25;50.34;95875.31;5056130;28;978;-58
2022/11/14 12:28:57;;;;;;;;;;;;;;;16.22;50.67;95867.59;5055991;28;1034;-59
2022/11/14 12:31:26;;;;;;;;;;;;;;;16.18;50.95;95869.81;5055884;28;1906;-58
2022/11/14 12:33:57;;;;;;;;;;;;;;;16.19;50.67;95865.25;5055947;28;986;-59
2022/11/14 12:36:29;;;;;;;;;;;;;;;16.18;51.33;95860.84;5055754;28;931;-59
2022/11/14 12:38:55;;;;;;;;;;;;;;;16.16;50.85;95863.75;5055632;28;1287;-58
2022/11/14 12:41:24;;;;;;;;;;;;;;;16.13;51.62;95857.88;5055937;28;1053;-58
2022/11/14 12:43:50;;;;;;;;;;;;;;;16.10;51.63;95856.34;5055679;28;1094;-58
2022/11/14 12:46:16;;;;;;;;;;;;;;;16.07;51.57;95851.34;5055708;28;954;-58
2022/11/14 12:48:46;;;;;;;;;;;;;;;16.06;50.97;95851.50;5055695;28;1053;-58
2022/11/14 12:51:24;;;;;;;;;;;;;;;16.05;50.83;95844.41;5055564;28;1991;-59
2022/11/14 12:53:51;;;;;;;;;;;;;;;16.02;51.46;95842.94;5055346;28;1732;-59
2022/11/14 12:56:17;;;;;;;;;;;;;;;16.00;51.13;95848.50;5055545;28;1017;-59
2022/11/14 12:58:43;;;;;;;;;;;;;;;15.99;51.56;95843.28;5055592;28;1008;-59
2022/11/14 13:01:23;;;;;;;;;;;;;;;15.99;51.56;95845.97;5055432;28;1081;-59
2022/11/14 13:03:55;;;;;;;;;;;;;;;15.95;51.84;95840.13;5055461;28;966;-59
2022/11/14 13:06:26;;;;;;;;;;;;;;;15.93;51.47;95838.59;5055206;28;1037;-59
2022/11/14 13:08:52;;;;;;;;;;;;;;;15.91;51.77;95835.25;5055225;28;1097;-59
2022/11/14 13:22:41;;;;;;;;;;;;;;;15.85;51.85;95841.34;5055016;28;1006;-58
2022/11/14 13:25:08;;;;;;;;;;;;;;;15.84;52.35;95835.13;5037153;28;1054;-58